CEB219 RPLL-ROAH
Flight info
| Callsign | CEB219 |
|---|---|
| Flight time | N/A |
| Altitude | 39000 |
| Route | CAB2R CAB DCT CUY DCT DADNU DCT GUMBO DCT ENTOK |
| Aircraft | B752/M-SDE3FGHIM3RWXY/LB1 |
Departure
| Time | 2026-05-06 01:49 |
|---|---|
| Airport | Ninoy Aquino International Airport (RPLL) |
Arrival
| Time | N/A |
|---|---|
| Airport | Naha International Airport (ROAH) |
| Time | Latitude | Longitude | Altitude | Speed | Heading |
|---|---|---|---|---|---|
| 2026-05-06 01:26 | 14.51752 | 121.01423 | 84 ft | 0 kts | 46° |
| 2026-05-06 01:28 | 14.51747 | 121.01417 | 84 ft | 2 kts | 46° |
| 2026-05-06 01:28 | 14.51737 | 121.01407 | 84 ft | 2 kts | 46° |
| 2026-05-06 01:28 | 14.51726 | 121.01395 | 84 ft | 2 kts | 46° |
| 2026-05-06 01:28 | 14.51716 | 121.01385 | 84 ft | 2 kts | 46° |
| 2026-05-06 01:29 | 14.51705 | 121.01373 | 84 ft | 2 kts | 50° |
| 2026-05-06 01:29 | 14.51699 | 121.01360 | 84 ft | 2 kts | 81° |
| 2026-05-06 01:29 | 14.51699 | 121.01344 | 84 ft | 2 kts | 106° |
| 2026-05-06 01:29 | 14.51706 | 121.01331 | 84 ft | 2 kts | 130° |
| 2026-05-06 01:30 | 14.51717 | 121.01320 | 84 ft | 2 kts | 137° |
| 2026-05-06 01:30 | 14.51727 | 121.01309 | 84 ft | 2 kts | 134° |
| 2026-05-06 01:30 | 14.51736 | 121.01300 | 84 ft | 0 kts | 135° |
| 2026-05-06 01:31 | 14.51736 | 121.01299 | 84 ft | 0 kts | 135° |
| 2026-05-06 01:33 | 14.51738 | 121.01298 | 84 ft | 2 kts | 135° |
| 2026-05-06 01:33 | 14.51748 | 121.01288 | 84 ft | 0 kts | 135° |
| 2026-05-06 01:37 | 14.51743 | 121.01293 | 84 ft | 2 kts | 134° |
| 2026-05-06 01:37 | 14.51724 | 121.01312 | 84 ft | 4 kts | 134° |
| 2026-05-06 01:37 | 14.51696 | 121.01342 | 84 ft | 6 kts | 134° |
| 2026-05-06 01:37 | 14.51663 | 121.01376 | 84 ft | 5 kts | 137° |
| 2026-05-06 01:38 | 14.51631 | 121.01407 | 84 ft | 6 kts | 134° |
| 2026-05-06 01:38 | 14.51596 | 121.01444 | 84 ft | 7 kts | 134° |
| 2026-05-06 01:38 | 14.51559 | 121.01483 | 84 ft | 7 kts | 134° |
| 2026-05-06 01:38 | 14.51522 | 121.01521 | 84 ft | 7 kts | 135° |
| 2026-05-06 01:39 | 14.51503 | 121.01540 | 84 ft | 7 kts | 135° |
| 2026-05-06 01:39 | 14.51464 | 121.01580 | 84 ft | 7 kts | 135° |
| 2026-05-06 01:39 | 14.51428 | 121.01585 | 84 ft | 6 kts | 195° |
| 2026-05-06 01:39 | 14.51361 | 121.01587 | 84 ft | 12 kts | 145° |
| 2026-05-06 01:40 | 14.51278 | 121.01672 | 84 ft | 20 kts | 134° |
| 2026-05-06 01:40 | 14.51159 | 121.01793 | 84 ft | 25 kts | 138° |
| 2026-05-06 01:40 | 14.51062 | 121.01892 | 84 ft | 14 kts | 134° |
| 2026-05-06 01:40 | 14.51012 | 121.01910 | 84 ft | 4 kts | 200° |
| 2026-05-06 01:41 | 14.50979 | 121.01878 | 84 ft | 10 kts | 231° |
| 2026-05-06 01:41 | 14.50923 | 121.01784 | 84 ft | 19 kts | 241° |
| 2026-05-06 01:41 | 14.50854 | 121.01653 | 84 ft | 21 kts | 242° |
| 2026-05-06 01:41 | 14.50789 | 121.01535 | 84 ft | 18 kts | 240° |
| 2026-05-06 01:42 | 14.50726 | 121.01421 | 84 ft | 18 kts | 239° |
| 2026-05-06 01:42 | 14.50664 | 121.01309 | 84 ft | 17 kts | 243° |
| 2026-05-06 01:42 | 14.50605 | 121.01199 | 84 ft | 17 kts | 239° |
| 2026-05-06 01:42 | 14.50545 | 121.01094 | 84 ft | 16 kts | 240° |
| 2026-05-06 01:43 | 14.50519 | 121.01047 | 84 ft | 5 kts | 240° |
| 2026-05-06 01:43 | 14.50497 | 121.01008 | 84 ft | 7 kts | 240° |
| 2026-05-06 01:43 | 14.50471 | 121.00962 | 84 ft | 7 kts | 240° |
| 2026-05-06 01:43 | 14.50444 | 121.00915 | 84 ft | 7 kts | 240° |
| 2026-05-06 01:44 | 14.50417 | 121.00866 | 84 ft | 7 kts | 240° |
| 2026-05-06 01:44 | 14.50375 | 121.00792 | 84 ft | 15 kts | 239° |
| 2026-05-06 01:44 | 14.50319 | 121.00690 | 84 ft | 16 kts | 241° |
| 2026-05-06 01:44 | 14.50262 | 121.00586 | 84 ft | 16 kts | 240° |
| 2026-05-06 01:45 | 14.50204 | 121.00484 | 84 ft | 16 kts | 239° |
| 2026-05-06 01:45 | 14.50145 | 121.00382 | 84 ft | 16 kts | 239° |
| 2026-05-06 01:45 | 14.50085 | 121.00282 | 84 ft | 16 kts | 238° |
| 2026-05-06 01:45 | 14.50039 | 121.00182 | 84 ft | 15 kts | 245° |
| 2026-05-06 01:46 | 14.49994 | 121.00082 | 84 ft | 15 kts | 245° |
| 2026-05-06 01:46 | 14.49961 | 121.00006 | 84 ft | 5 kts | 248° |
| 2026-05-06 01:46 | 14.49958 | 121.00000 | 84 ft | 2 kts | 245° |
| 2026-05-06 01:46 | 14.49932 | 120.99968 | 84 ft | 9 kts | 206° |
| 2026-05-06 01:47 | 14.49817 | 121.00010 | 84 ft | 22 kts | 120° |
| 2026-05-06 01:47 | 14.49845 | 121.00123 | 84 ft | 6 kts | 62° |
| 2026-05-06 01:47 | 14.49849 | 121.00130 | 84 ft | 0 kts | 60° |
| 2026-05-06 01:47 | 14.49851 | 121.00133 | 84 ft | 2 kts | 60° |
| 2026-05-06 01:48 | 14.49856 | 121.00143 | 84 ft | 0 kts | 61° |
| 2026-05-06 01:48 | 14.49939 | 121.00291 | 84 ft | 60 kts | 59° |
| 2026-05-06 01:48 | 14.50277 | 121.00898 | 85 ft | 132 kts | 61° |
| 2026-05-06 01:48 | 14.50851 | 121.01890 | 256 ft | 179 kts | 60° |
| 2026-05-06 01:49 | 14.51422 | 121.02975 | 1257 ft | 171 kts | 65° |
| 2026-05-06 01:49 | 14.51916 | 121.04041 | 2046 ft | 169 kts | 65° |
| 2026-05-06 01:49 | 14.52411 | 121.05192 | 2548 ft | 186 kts | 68° |
| 2026-05-06 01:49 | 14.52986 | 121.06488 | 2963 ft | 211 kts | 64° |
| 2026-05-06 01:50 | 14.53207 | 121.06935 | 3168 ft | 216 kts | 64° |
| 2026-05-06 01:50 | 14.55563 | 121.11404 | 4917 ft | 266 kts | 62° |
| 2026-05-06 01:50 | 14.56606 | 121.12942 | 5830 ft | 270 kts | 44° |
| 2026-05-06 01:51 | 14.57673 | 121.13683 | 6367 ft | 277 kts | 25° |
| 2026-05-06 01:51 | 14.59559 | 121.14094 | 6966 ft | 291 kts | 5° |
| 2026-05-06 01:51 | 14.62298 | 121.14133 | 6951 ft | 287 kts | 2° |
| 2026-05-06 01:51 | 14.64269 | 121.14155 | 6961 ft | 280 kts | 2° |
| 2026-05-06 01:52 | 14.65577 | 121.14168 | 6967 ft | 282 kts | 2° |
| 2026-05-06 01:52 | 14.68233 | 121.14190 | 7129 ft | 290 kts | 2° |
| 2026-05-06 01:52 | 14.70235 | 121.13977 | 8116 ft | 289 kts | 346° |
| 2026-05-06 01:52 | 14.71493 | 121.13565 | 8668 ft | 292 kts | 343° |
| 2026-05-06 01:53 | 14.74112 | 121.12663 | 9737 ft | 298 kts | 342° |
| 2026-05-06 01:53 | 14.75404 | 121.12212 | 10254 ft | 301 kts | 342° |
| 2026-05-06 01:53 | 14.78163 | 121.11237 | 10790 ft | 326 kts | 342° |
| 2026-05-06 01:53 | 14.79617 | 121.10720 | 11034 ft | 338 kts | 342° |
| 2026-05-06 01:54 | 14.81922 | 121.09896 | 11329 ft | 358 kts | 342° |
| 2026-05-06 01:54 | 14.84343 | 121.09029 | 11557 ft | 376 kts | 342° |
| 2026-05-06 01:54 | 14.86845 | 121.08131 | 11884 ft | 383 kts | 342° |
| 2026-05-06 01:54 | 14.89445 | 121.07333 | 12200 ft | 388 kts | 351° |
| 2026-05-06 01:55 | 14.93008 | 121.07007 | 13099 ft | 389 kts | 356° |
| 2026-05-06 01:55 | 14.95723 | 121.06795 | 13626 ft | 393 kts | 356° |
| 2026-05-06 01:55 | 14.98439 | 121.06596 | 14171 ft | 396 kts | 356° |
| 2026-05-06 01:55 | 15.01247 | 121.06395 | 14716 ft | 400 kts | 356° |
| 2026-05-06 01:56 | 15.04014 | 121.06200 | 15235 ft | 403 kts | 356° |
| 2026-05-06 01:56 | 15.05894 | 121.06068 | 15577 ft | 406 kts | 356° |
| 2026-05-06 01:56 | 15.08717 | 121.05871 | 16094 ft | 409 kts | 356° |
| 2026-05-06 01:56 | 15.12562 | 121.05604 | 16886 ft | 413 kts | 356° |
| 2026-05-06 01:57 | 15.15444 | 121.05403 | 17454 ft | 417 kts | 356° |
| 2026-05-06 01:57 | 15.17345 | 121.05271 | 17804 ft | 419 kts | 356° |
| 2026-05-06 01:57 | 15.20299 | 121.05066 | 18343 ft | 423 kts | 356° |
| 2026-05-06 01:57 | 15.24249 | 121.04791 | 19028 ft | 428 kts | 356° |
| 2026-05-06 01:58 | 15.26230 | 121.04654 | 19376 ft | 430 kts | 356° |
| 2026-05-06 01:58 | 15.29247 | 121.04445 | 19904 ft | 434 kts | 356° |
| 2026-05-06 01:58 | 15.32273 | 121.04234 | 20381 ft | 438 kts | 356° |
| 2026-05-06 01:58 | 15.35293 | 121.04024 | 20874 ft | 441 kts | 356° |
| 2026-05-06 01:59 | 15.38391 | 121.03809 | 21349 ft | 444 kts | 356° |
| 2026-05-06 01:59 | 15.41468 | 121.03596 | 21816 ft | 448 kts | 356° |
| 2026-05-06 01:59 | 15.45653 | 121.03513 | 22405 ft | 453 kts | 5° |
| 2026-05-06 01:59 | 15.47744 | 121.03809 | 22724 ft | 455 kts | 11° |
| 2026-05-06 02:00 | 15.51781 | 121.05117 | 23428 ft | 460 kts | 23° |
| 2026-05-06 02:00 | 15.53744 | 121.06049 | 23747 ft | 463 kts | 25° |
| 2026-05-06 02:00 | 15.56652 | 121.07457 | 24255 ft | 466 kts | 25° |
| 2026-05-06 02:00 | 15.60601 | 121.09387 | 24927 ft | 469 kts | 25° |
| 2026-05-06 02:01 | 15.62550 | 121.10346 | 25251 ft | 471 kts | 25° |
| 2026-05-06 02:01 | 15.65526 | 121.11814 | 25718 ft | 475 kts | 25° |
| 2026-05-06 02:01 | 15.68517 | 121.13294 | 26174 ft | 478 kts | 25° |
| 2026-05-06 02:01 | 15.72541 | 121.15288 | 26778 ft | 482 kts | 25° |
| 2026-05-06 02:02 | 15.75612 | 121.16813 | 27197 ft | 486 kts | 24° |
| 2026-05-06 02:02 | 15.77642 | 121.17821 | 27492 ft | 488 kts | 24° |
| 2026-05-06 02:02 | 15.80724 | 121.19352 | 27918 ft | 491 kts | 24° |
| 2026-05-06 02:02 | 15.83802 | 121.20882 | 28337 ft | 494 kts | 24° |
| 2026-05-06 02:03 | 15.87956 | 121.22948 | 29007 ft | 495 kts | 24° |
| 2026-05-06 02:03 | 15.91079 | 121.24502 | 29592 ft | 494 kts | 24° |
| 2026-05-06 02:03 | 15.93150 | 121.25532 | 29974 ft | 493 kts | 24° |
| 2026-05-06 02:03 | 15.96223 | 121.27063 | 30526 ft | 492 kts | 24° |
| 2026-05-06 02:04 | 15.99280 | 121.28586 | 31203 ft | 487 kts | 24° |
| 2026-05-06 02:04 | 16.02355 | 121.30119 | 31770 ft | 486 kts | 24° |
| 2026-05-06 02:04 | 16.05386 | 121.31629 | 32292 ft | 484 kts | 24° |
| 2026-05-06 02:04 | 16.08433 | 121.33149 | 32770 ft | 484 kts | 23° |
| 2026-05-06 02:05 | 16.11498 | 121.34677 | 33294 ft | 484 kts | 23° |
| 2026-05-06 02:05 | 16.14522 | 121.36186 | 33819 ft | 482 kts | 23° |
| 2026-05-06 02:05 | 16.17528 | 121.37687 | 34331 ft | 481 kts | 23° |
| 2026-05-06 02:05 | 16.20546 | 121.39194 | 34837 ft | 480 kts | 23° |
| 2026-05-06 02:06 | 16.23576 | 121.40707 | 35329 ft | 479 kts | 23° |
| 2026-05-06 02:06 | 16.27557 | 121.42696 | 35921 ft | 478 kts | 23° |
| 2026-05-06 02:06 | 16.29571 | 121.43703 | 36187 ft | 478 kts | 23° |
| 2026-05-06 02:06 | 16.33584 | 121.45709 | 36695 ft | 478 kts | 23° |
| 2026-05-06 02:07 | 16.36567 | 121.47201 | 37056 ft | 478 kts | 23° |
| 2026-05-06 02:07 | 16.38573 | 121.48206 | 37296 ft | 478 kts | 23° |
| 2026-05-06 02:07 | 16.42573 | 121.50208 | 37744 ft | 478 kts | 23° |
| 2026-05-06 02:07 | 16.45572 | 121.51709 | 38080 ft | 477 kts | 23° |
| 2026-05-06 02:08 | 16.47558 | 121.52704 | 38313 ft | 477 kts | 23° |
| 2026-05-06 02:08 | 16.50537 | 121.54196 | 38663 ft | 476 kts | 24° |
| 2026-05-06 02:08 | 16.53543 | 121.55704 | 38985 ft | 473 kts | 24° |
| 2026-05-06 02:08 | 16.56499 | 121.57185 | 38951 ft | 473 kts | 24° |
| 2026-05-06 02:09 | 16.62452 | 121.60171 | 38952 ft | 473 kts | 24° |
| 2026-05-06 02:09 | 16.68359 | 121.63136 | 38953 ft | 473 kts | 23° |
| 2026-05-06 02:10 | 16.75310 | 121.66628 | 38943 ft | 472 kts | 24° |
| 2026-05-06 02:10 | 16.80238 | 121.69106 | 38941 ft | 473 kts | 24° |
| 2026-05-06 02:11 | 16.87179 | 121.72598 | 38933 ft | 473 kts | 24° |
| 2026-05-06 02:11 | 16.92126 | 121.75088 | 38936 ft | 472 kts | 24° |
| 2026-05-06 02:12 | 16.98992 | 121.78706 | 38932 ft | 472 kts | 25° |
| 2026-05-06 02:12 | 17.03850 | 121.81287 | 38933 ft | 471 kts | 25° |
| 2026-05-06 02:13 | 17.10583 | 121.84865 | 38943 ft | 472 kts | 25° |
| 2026-05-06 02:13 | 17.16471 | 121.87996 | 38940 ft | 473 kts | 25° |
| 2026-05-06 02:14 | 17.22359 | 121.91130 | 38950 ft | 473 kts | 25° |
| 2026-05-06 02:14 | 17.28208 | 121.94244 | 38973 ft | 473 kts | 25° |
| 2026-05-06 02:15 | 17.34097 | 121.97383 | 38995 ft | 472 kts | 24° |
| 2026-05-06 02:15 | 17.39932 | 122.00494 | 39005 ft | 472 kts | 25° |
| 2026-05-06 02:16 | 17.45858 | 122.03657 | 39011 ft | 474 kts | 25° |
| 2026-05-06 02:16 | 17.51725 | 122.06790 | 39010 ft | 474 kts | 25° |
| 2026-05-06 02:17 | 17.57606 | 122.09933 | 38989 ft | 474 kts | 25° |
| 2026-05-06 02:17 | 17.63507 | 122.13090 | 38967 ft | 474 kts | 25° |
| 2026-05-06 02:18 | 17.69360 | 122.16222 | 38944 ft | 474 kts | 24° |
| 2026-05-06 02:18 | 17.75256 | 122.19381 | 38926 ft | 475 kts | 24° |
| 2026-05-06 02:19 | 17.81186 | 122.22536 | 38916 ft | 475 kts | 21° |
| 2026-05-06 02:19 | 17.87445 | 122.24487 | 38918 ft | 470 kts | 8° |
| 2026-05-06 02:20 | 17.88526 | 122.24712 | 38911 ft | 470 kts | 8° |